Time;durP1;ratioP1;P1;durP2;ratioP2;P2;SDS_P1;SDS_P2;PMS_P1;PMS_P2;Temp;Humidity;BMP_temperature;BMP_pressure;BME280_temperature;BME280_humidity;BME280_pressure;Samples;Min_cycle;Max_cycle;Signal;HPM_P1;HPM_P2
2023/11/05 00:00:13;;;;;;;0.60;0.40;;;;;;;10.41;100.00;93111.75;5036650;28;20205;-72
2023/11/05 00:02:41;;;;;;;1.33;0.50;;;;;;;10.82;100.00;93090.75;5036422;28;20205;-69
2023/11/05 00:05:13;;;;;;;0.30;0.30;;;;;;;10.65;100.00;93095.34;5036187;28;20201;-72
2023/11/05 00:07:39;;;;;;;0.40;0.40;;;;;;;10.62;100.00;93103.00;5038859;28;20282;-70
2023/11/05 00:10:06;;;;;;;0.50;0.40;;;;;;;10.62;100.00;93098.50;5038364;28;20336;-72
2023/11/05 00:12:33;;;;;;;0.40;0.40;;;;;;;10.59;100.00;93085.84;5037390;28;20219;-70
2023/11/05 00:14:59;;;;;;;0.40;0.40;;;;;;;10.54;100.00;93092.94;5038734;28;20210;-71
2023/11/05 00:17:26;;;;;;;0.77;0.40;;;;;;;10.59;100.00;93092.94;5038457;28;20205;-72
2023/11/05 00:19:54;;;;;;;0.40;0.40;;;;;;;10.68;100.00;93079.06;5038541;28;20716;-72
2023/11/05 00:22:20;;;;;;;0.77;0.40;;;;;;;10.51;100.00;93086.34;5037179;28;20212;-72
2023/11/05 00:24:47;;;;;;;0.83;0.50;;;;;;;10.51;100.00;93075.00;5039144;28;20307;-70
2023/11/05 00:27:14;;;;;;;0.40;0.40;;;;;;;10.58;100.00;93070.31;5037839;28;20284;-69
2023/11/05 00:29:40;;;;;;;0.30;0.30;;;;;;;10.47;100.00;93087.84;5038256;28;20205;-72
2023/11/05 00:32:07;;;;;;;0.40;0.40;;;;;;;10.41;100.00;93111.75;5036970;28;20205;-73
2023/11/05 00:34:34;;;;;;;0.20;0.20;;;;;;;10.41;100.00;93106.50;5038190;28;20217;-71
2023/11/05 00:37:02;;;;;;;1.00;0.40;;;;;;;10.36;100.00;93098.56;5037842;28;20221;-72
2023/11/05 00:39:28;;;;;;;0.30;0.30;;;;;;;10.27;100.00;93091.38;5037543;28;20695;-71
2023/11/05 00:41:55;;;;;;;1.70;0.40;;;;;;;10.27;100.00;93086.13;5038256;28;20304;-70
2023/11/05 00:44:21;;;;;;;0.30;0.30;;;;;;;10.27;100.00;93089.53;5037984;28;20212;-72
2023/11/05 00:46:48;;;;;;;0.30;0.30;;;;;;;10.21;100.00;93095.81;5037852;28;20240;-72
2023/11/05 00:49:14;;;;;;;1.13;0.60;;;;;;;10.24;100.00;93103.19;5038173;28;20205;-71
2023/11/05 00:51:41;;;;;;;0.33;0.33;;;;;;;10.15;100.00;93103.91;5037692;28;20212;-72
2023/11/05 00:54:09;;;;;;;0.30;0.30;;;;;;;10.23;100.00;93106.88;5036666;28;20205;-72
2023/11/05 00:56:35;;;;;;;0.40;0.40;;;;;;;10.05;100.00;93106.44;5037603;28;21446;-70
2023/11/05 00:59:02;;;;;;;0.37;0.33;;;;;;;9.88;100.00;93109.13;5036793;28;20839;-72
2023/11/05 01:01:29;;;;;;;0.33;0.33;;;;;;;9.97;100.00;93104.28;5036988;28;20296;-72
2023/11/05 01:03:56;;;;;;;0.30;0.30;;;;;;;9.86;100.00;93105.16;5037304;28;20208;-69
2023/11/05 01:06:22;;;;;;;0.50;0.40;;;;;;;9.91;100.00;93094.69;5037997;28;20237;-72
2023/11/05 01:08:49;;;;;;;0.30;0.30;;;;;;;9.90;100.00;93098.38;5036943;28;20205;-70
2023/11/05 01:11:17;;;;;;;0.90;0.37;;;;;;;9.97;100.00;93091.91;5037804;28;20213;-70
2023/11/05 01:13:43;;;;;;;0.40;0.40;;;;;;;9.86;100.00;93079.69;5036913;28;20208;-73
2023/11/05 01:16:10;;;;;;;0.30;0.30;;;;;;;9.89;100.00;93073.09;5037104;28;20221;-69
2023/11/05 01:18:37;;;;;;;0.40;0.40;;;;;;;9.89;100.00;93068.66;5037687;28;20205;-73
2023/11/05 01:21:04;;;;;;;0.73;0.40;;;;;;;9.85;100.00;93062.31;5037512;28;20205;-72
2023/11/05 01:23:30;;;;;;;0.40;0.40;;;;;;;9.88;100.00;93051.28;5036228;28;20208;-70
2023/11/05 01:25:57;;;;;;;0.40;0.40;;;;;;;9.88;100.00;93051.28;5037635;28;20221;-72
2023/11/05 01:28:25;;;;;;;0.50;0.40;;;;;;;10.05;100.00;93052.00;5037090;28;20201;-72
2023/11/05 01:30:51;;;;;;;0.60;0.60;;;;;;;9.91;100.00;93056.03;5037220;28;20337;-72
2023/11/05 01:33:18;;;;;;;0.40;0.40;;;;;;;9.96;100.00;93060.59;5036698;28;20600;-72
2023/11/05 01:35:44;;;;;;;0.73;0.60;;;;;;;9.94;100.00;93071.34;5037200;28;20233;-72
2023/11/05 01:38:11;;;;;;;0.40;0.40;;;;;;;10.06;100.00;93074.63;5036452;28;20208;-73
2023/11/05 01:40:37;;;;;;;0.37;0.37;;;;;;;10.15;100.00;93067.09;5036853;28;20209;-72
2023/11/05 01:43:04;;;;;;;0.50;0.50;;;;;;;10.04;100.00;93071.47;5036220;28;20216;-73
2023/11/05 01:45:32;;;;;;;0.57;0.40;;;;;;;10.20;100.00;93065.28;5036786;28;20224;-72
2023/11/05 01:47:59;;;;;;;0.53;0.40;;;;;;;10.00;100.00;93064.31;5037364;28;20221;-69
2023/11/05 01:50:26;;;;;;;0.47;0.30;;;;;;;9.99;100.00;93063.53;5036655;28;20215;-72
2023/11/05 01:52:55;;;;;;;0.50;0.37;;;;;;;9.92;100.00;93060.25;5036343;28;20739;-73
2023/11/05 01:55:22;;;;;;;0.93;0.33;;;;;;;9.86;100.00;93048.13;5036124;28;20787;-70
2023/11/05 01:57:49;;;;;;;0.73;0.50;;;;;;;9.82;100.00;93044.38;5036894;28;20212;-69
2023/11/05 02:00:16;;;;;;;1.20;0.40;;;;;;;9.75;100.00;93035.13;5035894;28;20383;-71
2023/11/05 02:02:44;;;;;;;0.40;0.40;;;;;;;9.87;100.00;93028.66;5035822;28;20209;-72
2023/11/05 02:05:11;;;;;;;0.30;0.30;;;;;;;9.70;100.00;93021.94;5036084;28;20207;-71
2023/11/05 02:07:37;;;;;;;0.40;0.40;;;;;;;9.67;100.00;93019.00;5036458;28;20225;-72
2023/11/05 02:10:05;;;;;;;0.30;0.30;;;;;;;9.57;100.00;93021.53;5035547;28;20596;-71
2023/11/05 02:12:32;;;;;;;0.57;0.57;;;;;;;9.62;100.00;93003.19;5035373;28;20883;-73
2023/11/05 02:14:58;;;;;;;4.33;0.50;;;;;;;9.66;100.00;93012.16;5036987;28;20201;-69
2023/11/05 02:17:25;;;;;;;0.83;0.40;;;;;;;9.58;100.00;93010.00;5035536;28;20212;-72
2023/11/05 02:19:53;;;;;;;1.20;0.50;;;;;;;9.75;100.00;93008.84;5036432;28;20205;-71
2023/11/05 02:22:22;;;;;;;1.10;0.80;;;;;;;9.77;100.00;93012.00;5035691;28;20615;-72
2023/11/05 02:24:50;;;;;;;0.87;0.50;;;;;;;9.82;100.00;93020.72;5036057;28;20547;-69
2023/11/05 02:27:17;;;;;;;0.40;0.40;;;;;;;9.54;100.00;93014.16;5036177;28;20233;-72
2023/11/05 02:29:43;;;;;;;0.40;0.40;;;;;;;9.51;100.00;93009.38;5036475;28;20201;-72
2023/11/05 02:32:10;;;;;;;0.30;0.30;;;;;;;9.56;100.00;93004.19;5034779;28;20558;-73
2023/11/05 02:34:36;;;;;;;0.30;0.30;;;;;;;9.54;100.00;93011.53;5035787;28;20244;-70
2023/11/05 02:37:03;;;;;;;2.60;0.30;;;;;;;9.47;100.00;92998.59;5035595;28;20220;-72
2023/11/05 02:39:29;;;;;;;0.30;0.30;;;;;;;9.42;100.00;92997.72;5035708;28;20300;-72
2023/11/05 02:41:57;;;;;;;0.40;0.40;;;;;;;9.54;100.00;92996.53;5035052;28;20209;-69
2023/11/05 02:44:24;;;;;;;0.40;0.40;;;;;;;9.43;100.00;92988.81;5035958;28;20201;-72
2023/11/05 02:46:50;;;;;;;0.60;0.43;;;;;;;9.41;100.00;92985.66;5035374;28;20717;-71
2023/11/05 02:49:17;;;;;;;1.17;0.53;;;;;;;9.36;100.00;92977.72;5035214;28;20211;-72
2023/11/05 02:51:44;;;;;;;0.50;0.40;;;;;;;9.42;100.00;92977.53;5035785;28;20663;-73
2023/11/05 02:54:10;;;;;;;0.60;0.30;;;;;;;9.39;100.00;92975.38;5035670;28;20197;-72
2023/11/05 02:56:37;;;;;;;0.97;0.40;;;;;;;9.31;100.00;92969.78;5035062;28;20599;-71
2023/11/05 02:59:05;;;;;;;0.37;0.30;;;;;;;9.53;100.00;92967.91;5036096;28;20201;-70
2023/11/05 03:01:34;;;;;;;0.80;0.50;;;;;;;9.37;100.00;92974.84;5035845;28;20205;-70
2023/11/05 03:04:01;;;;;;;0.33;0.33;;;;;;;9.41;100.00;92972.53;5035584;28;20566;-71
2023/11/05 03:06:27;;;;;;;0.50;0.50;;;;;;;9.47;100.00;92956.56;5035274;28;20228;-70
2023/11/05 03:08:54;;;;;;;0.73;0.60;;;;;;;9.52;100.00;92942.66;5035769;28;21066;-70
2023/11/05 03:11:20;;;;;;;0.50;0.50;;;;;;;9.63;100.00;92950.38;5034955;28;20201;-71
2023/11/05 03:13:47;;;;;;;0.53;0.53;;;;;;;9.60;100.00;92943.00;5035155;28;20209;-71
2023/11/05 03:16:14;;;;;;;0.47;0.40;;;;;;;9.84;100.00;92942.41;5035873;28;20221;-70
2023/11/05 03:18:41;;;;;;;0.30;0.30;;;;;;;9.68;100.00;92937.28;5035394;28;20196;-70
2023/11/05 03:21:07;;;;;;;0.30;0.30;;;;;;;9.73;100.00;92937.31;5038366;28;20235;-71
2023/11/05 03:23:34;;;;;;;0.30;0.30;;;;;;;9.71;100.00;92940.19;5038642;28;20201;-71
2023/11/05 03:26:00;;;;;;;0.30;0.30;;;;;;;9.72;100.00;92928.66;5040517;28;20733;-71
2023/11/05 03:28:27;;;;;;;0.40;0.40;;;;;;;9.68;100.00;92919.66;5038717;28;20224;-71
2023/11/05 03:30:53;;;;;;;0.40;0.40;;;;;;;9.67;100.00;92921.75;5037435;28;20201;-70
2023/11/05 03:33:20;;;;;;;0.53;0.40;;;;;;;9.80;100.00;92916.84;5037677;28;20239;-70
2023/11/05 03:35:49;;;;;;;0.30;0.30;;;;;;;9.72;100.00;92915.50;5039643;28;20233;-71
2023/11/05 03:38:16;;;;;;;0.30;0.30;;;;;;;9.70;100.00;92922.84;5038581;28;20201;-70
2023/11/05 03:40:42;;;;;;;0.40;0.40;;;;;;;9.61;100.00;92906.97;5038630;28;20580;-71
2023/11/05 03:43:09;;;;;;;1.03;0.30;;;;;;;9.63;100.00;92912.78;5038530;28;20201;-71
2023/11/05 03:45:35;;;;;;;0.40;0.37;;;;;;;9.71;100.00;92915.72;5038750;28;20224;-70
2023/11/05 03:48:02;;;;;;;0.50;0.50;;;;;;;9.62;100.00;92914.63;5039453;28;20678;-69
2023/11/05 03:50:30;;;;;;;0.67;0.50;;;;;;;9.79;100.00;92907.41;5038282;28;20208;-71
2023/11/05 03:52:56;;;;;;;0.43;0.40;;;;;;;9.60;100.00;92915.91;5038408;28;21289;-71
2023/11/05 03:55:23;;;;;;;0.30;0.30;;;;;;;9.71;100.00;92919.16;5038773;28;20237;-71
2023/11/05 03:57:49;;;;;;;0.60;0.30;;;;;;;9.61;100.00;92914.88;5038994;28;20679;-71
2023/11/05 04:00:16;;;;;;;0.33;0.33;;;;;;;9.61;100.00;92907.78;5038342;28;20201;-70
2023/11/05 04:02:42;;;;;;;0.40;0.40;;;;;;;9.53;100.00;92905.59;5037920;28;20209;-70
2023/11/05 04:05:09;;;;;;;0.67;0.50;;;;;;;9.44;100.00;92901.06;5038432;28;20578;-70
2023/11/05 04:07:37;;;;;;;0.30;0.30;;;;;;;9.48;100.00;92894.28;5038291;28;20225;-71
2023/11/05 04:10:05;;;;;;;0.30;0.30;;;;;;;9.68;100.00;92889.97;5038323;28;20200;-71
2023/11/05 04:12:31;;;;;;;0.40;0.40;;;;;;;9.51;100.00;92891.94;5037898;28;20201;-71
2023/11/05 04:14:58;;;;;;;0.73;0.40;;;;;;;9.54;100.00;92877.50;5038679;28;20205;-71
2023/11/05 04:17:24;;;;;;;0.40;0.40;;;;;;;9.61;100.00;92875.44;5038581;28;20205;-70
2023/11/05 04:19:52;;;;;;;0.67;0.30;;;;;;;9.61;100.00;92873.63;5038912;28;20197;-70
2023/11/05 04:22:18;;;;;;;0.30;0.30;;;;;;;9.62;100.00;92890.19;5037356;28;20201;-69
2023/11/05 04:24:46;;;;;;;0.40;0.37;;;;;;;9.75;100.00;92872.94;5037874;28;20209;-70
2023/11/05 04:27:12;;;;;;;3.00;0.30;;;;;;;9.56;100.00;92876.22;5039343;28;20236;-71
2023/11/05 04:29:39;;;;;;;0.30;0.30;;;;;;;9.55;100.00;92879.88;5037635;28;20202;-71
2023/11/05 04:32:06;;;;;;;0.40;0.40;;;;;;;9.71;100.00;92874.47;5038083;28;20671;-71
2023/11/05 04:34:32;;;;;;;0.70;0.50;;;;;;;9.79;100.00;92876.63;5037761;28;20698;-71
2023/11/05 04:37:00;;;;;;;1.50;0.70;;;;;;;9.91;100.00;92865.94;5038215;28;20290;-69
2023/11/05 04:39:28;;;;;;;0.73;0.50;;;;;;;10.05;100.00;92867.88;5036830;28;20670;-70
2023/11/05 04:41:56;;;;;;;0.40;0.40;;;;;;;10.24;100.00;92882.19;5039248;28;20315;-71
2023/11/05 04:44:23;;;;;;;0.40;0.40;;;;;;;10.25;100.00;92875.91;5037710;28;20209;-71
2023/11/05 04:46:49;;;;;;;0.30;0.30;;;;;;;10.33;100.00;92876.22;5037681;28;20217;-70
2023/11/05 04:49:16;;;;;;;0.60;0.50;;;;;;;10.35;100.00;92881.22;5038160;28;20201;-70
2023/11/05 04:51:43;;;;;;;1.03;0.53;;;;;;;10.52;100.00;92876.53;5037651;28;20566;-70
2023/11/05 04:54:09;;;;;;;0.97;0.63;;;;;;;10.38;100.00;92876.22;5037586;28;20259;-70
2023/11/05 04:56:36;;;;;;;0.50;0.30;;;;;;;10.20;100.00;92865.34;5037430;28;20224;-70
2023/11/05 04:59:04;;;;;;;0.30;0.30;;;;;;;10.36;100.00;92864.34;5038220;28;20197;-71
2023/11/05 05:01:31;;;;;;;0.30;0.30;;;;;;;10.15;100.00;92862.69;5036757;28;20221;-71
2023/11/05 05:03:59;;;;;;;0.30;0.30;;;;;;;10.30;100.00;92862.75;5037482;28;20205;-70
2023/11/05 05:06:26;;;;;;;0.20;0.20;;;;;;;10.24;100.00;92852.47;5037159;28;20225;-71
2023/11/05 05:08:52;;;;;;;0.37;0.37;;;;;;;10.40;100.00;92860.19;5037914;28;20217;-70
2023/11/05 05:11:19;;;;;;;0.50;0.50;;;;;;;10.39;100.00;92853.34;5037184;28;20227;-71
2023/11/05 05:13:46;;;;;;;0.40;0.40;;;;;;;10.32;100.00;92854.59;5037362;28;20236;-71
2023/11/05 05:16:17;;;;;;;0.53;0.47;;;;;;;10.60;100.00;92865.50;5037460;28;20225;-71
2023/11/05 05:18:44;;;;;;;0.50;0.30;;;;;;;10.18;100.00;92872.69;5037550;28;20197;-70
2023/11/05 05:21:10;;;;;;;0.87;0.40;;;;;;;10.18;100.00;92864.00;5037707;28;20216;-71
2023/11/05 05:23:37;;;;;;;0.30;0.30;;;;;;;10.21;100.00;92866.94;5036713;28;20212;-71
2023/11/05 05:26:04;;;;;;;0.37;0.37;;;;;;;10.38;100.00;92878.84;5037119;28;20296;-70
2023/11/05 05:28:30;;;;;;;1.90;0.40;;;;;;;10.36;100.00;92877.50;5036905;28;20260;-70
2023/11/05 05:30:57;;;;;;;0.30;0.30;;;;;;;10.26;100.00;92881.94;5037477;28;20944;-71
2023/11/05 05:33:25;;;;;;;0.50;0.50;;;;;;;10.75;100.00;92878.72;5035804;28;20205;-70
2023/11/05 05:35:51;;;;;;;0.60;0.43;;;;;;;10.68;100.00;92886.88;5036858;28;20236;-70
2023/11/05 05:38:18;;;;;;;0.30;0.30;;;;;;;10.72;100.00;92892.44;5037954;28;20284;-71
2023/11/05 05:40:44;;;;;;;1.03;0.70;;;;;;;10.63;100.00;92901.88;5036759;28;20212;-70
2023/11/05 05:43:10;;;;;;;0.30;0.30;;;;;;;10.56;100.00;92901.28;5035793;28;20227;-71
2023/11/05 05:45:37;;;;;;;0.30;0.30;;;;;;;10.40;100.00;92912.81;5036621;28;20221;-72
2023/11/05 05:48:04;;;;;;;0.57;0.50;;;;;;;10.42;100.00;92910.69;5037175;28;20221;-72
2023/11/05 05:50:31;;;;;;;0.40;0.40;;;;;;;10.61;100.00;92909.22;5036486;28;20201;-71
2023/11/05 05:52:58;;;;;;;0.37;0.37;;;;;;;10.34;100.00;92908.56;5036493;28;20844;-72
2023/11/05 05:55:24;;;;;;;0.30;0.30;;;;;;;10.32;100.00;92907.22;5036399;28;20462;-71
2023/11/05 05:57:51;;;;;;;0.30;0.30;;;;;;;10.16;100.00;92916.09;5035830;28;20208;-70
2023/11/05 06:00:18;;;;;;;0.30;0.30;;;;;;;10.19;100.00;92923.47;5036314;28;20212;-72
2023/11/05 06:02:44;;;;;;;0.30;0.30;;;;;;;10.16;100.00;92919.50;5035644;28;20576;-71
2023/11/05 06:05:11;;;;;;;0.30;0.30;;;;;;;10.03;100.00;92912.06;5036861;28;20205;-72
2023/11/05 06:07:39;;;;;;;1.13;0.70;;;;;;;10.11;100.00;92914.22;5035390;28;20722;-72
2023/11/05 06:10:07;;;;;;;2.33;0.60;;;;;;;10.23;100.00;92912.19;5036517;28;20209;-72
2023/11/05 06:12:34;;;;;;;0.60;0.60;;;;;;;10.17;100.00;92912.41;5034899;28;20258;-71
2023/11/05 06:15:01;;;;;;;0.63;0.63;;;;;;;10.52;100.00;92911.53;5037077;28;20236;-70
2023/11/05 06:17:28;;;;;;;0.53;0.43;;;;;;;10.31;100.00;92922.25;5036435;28;20216;-72
2023/11/05 06:19:54;;;;;;;0.53;0.50;;;;;;;10.37;100.00;92911.47;5036257;28;20655;-70
2023/11/05 06:22:22;;;;;;;2.10;1.07;;;;;;;10.22;100.00;92920.31;5035646;28;20205;-70
2023/11/05 06:24:49;;;;;;;1.07;0.80;;;;;;;10.39;100.00;92921.75;5036477;28;20196;-71
2023/11/05 06:27:16;;;;;;;3.67;1.90;;;;;;;10.16;100.00;92924.00;5035996;28;20221;-71
2023/11/05 06:29:42;;;;;;;2.63;1.47;;;;;;;10.09;100.00;92932.06;5035446;28;20227;-71
2023/11/05 06:32:09;;;;;;;3.70;1.50;;;;;;;10.12;100.00;92930.78;5035608;28;20844;-71
2023/11/05 06:34:35;;;;;;;1.23;1.00;;;;;;;10.35;100.00;92929.34;5034609;28;20227;-70
2023/11/05 06:37:03;;;;;;;2.33;1.27;;;;;;;10.48;100.00;92928.13;5036401;28;20217;-71
2023/11/05 06:39:30;;;;;;;5.17;3.00;;;;;;;10.29;100.00;92931.44;5035562;28;20311;-70
2023/11/05 06:41:58;;;;;;;3.47;2.00;;;;;;;10.40;100.00;92924.13;5035504;28;20243;-72
2023/11/05 06:44:25;;;;;;;2.37;1.33;;;;;;;10.45;100.00;92926.78;5034144;28;20215;-69
2023/11/05 06:46:52;;;;;;;1.77;1.40;;;;;;;10.52;100.00;92937.06;5034189;28;20225;-71
2023/11/05 06:49:18;;;;;;;1.90;1.40;;;;;;;10.56;100.00;92930.25;5033682;28;20306;-71
2023/11/05 06:51:45;;;;;;;4.70;1.00;;;;;;;10.58;100.00;92941.34;5034537;28;20687;-70
2023/11/05 06:54:11;;;;;;;3.87;2.53;;;;;;;10.62;100.00;92942.41;5032531;28;20201;-72
2023/11/05 06:56:38;;;;;;;3.13;1.00;;;;;;;10.73;100.00;92933.47;5034888;28;20225;-71
2023/11/05 06:59:07;;;;;;;3.60;2.10;;;;;;;11.00;100.00;92940.19;5033979;28;20197;-70
2023/11/05 07:01:34;;;;;;;1.53;0.90;;;;;;;10.71;100.00;92943.50;5035382;28;20208;-72
2023/11/05 07:04:01;;;;;;;0.40;0.40;;;;;;;10.75;100.00;92937.44;5033029;28;20216;-71
2023/11/05 07:06:28;;;;;;;2.40;0.73;;;;;;;10.87;100.00;92937.22;5033699;28;20290;-70
2023/11/05 07:08:54;;;;;;;1.43;0.90;;;;;;;11.05;100.00;92935.72;5034990;28;20221;-72
2023/11/05 07:11:21;;;;;;;3.83;1.17;;;;;;;11.12;100.00;92938.09;5034452;28;20205;-71
2023/11/05 07:13:47;;;;;;;2.20;0.67;;;;;;;11.16;100.00;92931.25;5034209;28;21129;-70
2023/11/05 07:16:15;;;;;;;1.13;1.00;;;;;;;11.36;100.00;92924.19;5035349;28;20217;-70
2023/11/05 07:18:42;;;;;;;1.33;0.93;;;;;;;11.37;100.00;92925.78;5036131;28;20207;-71
2023/11/05 07:21:11;;;;;;;3.40;0.90;;;;;;;11.69;100.00;92935.06;5035219;28;20734;-71
2023/11/05 07:23:37;;;;;;;0.70;0.70;;;;;;;11.58;100.00;92930.84;5033908;28;20201;-70
2023/11/05 07:26:05;;;;;;;0.87;0.50;;;;;;;11.91;100.00;92932.97;5035966;28;20220;-72
2023/11/05 07:28:31;;;;;;;2.30;0.80;;;;;;;11.75;100.00;92927.97;5035216;28;20658;-70
2023/11/05 07:30:58;;;;;;;5.13;1.23;;;;;;;11.73;100.00;92941.41;5034689;28;20205;-72
2023/11/05 07:33:26;;;;;;;1.60;1.13;;;;;;;11.98;100.00;92946.69;5034845;28;20205;-70
2023/11/05 07:35:53;;;;;;;1.20;0.97;;;;;;;11.75;100.00;92922.69;5035170;28;20229;-71
2023/11/05 07:38:21;;;;;;;1.13;0.90;;;;;;;11.70;100.00;92949.06;5034522;28;20202;-70
2023/11/05 07:40:48;;;;;;;4.17;1.27;;;;;;;11.84;100.00;92947.50;5034508;28;20617;-71
2023/11/05 07:43:15;;;;;;;1.67;1.00;;;;;;;11.94;100.00;92943.00;5034751;28;20209;-72
2023/11/05 07:45:42;;;;;;;0.50;0.50;;;;;;;12.03;100.00;92945.88;5033878;28;20228;-70
2023/11/05 07:48:08;;;;;;;0.97;0.57;;;;;;;12.18;100.00;92960.66;5034444;28;20229;-71
2023/11/05 07:50:36;;;;;;;1.60;0.50;;;;;;;12.45;100.00;92966.44;5034799;28;20694;-72
2023/11/05 07:53:03;;;;;;;0.60;0.60;;;;;;;12.50;100.00;92968.25;5034538;28;20201;-71
2023/11/05 07:55:30;;;;;;;0.40;0.40;;;;;;;12.56;100.00;92964.56;5034186;28;20237;-70
2023/11/05 07:57:56;;;;;;;3.10;1.30;;;;;;;12.77;100.00;92969.53;5033869;28;20289;-71
2023/11/05 08:00:23;;;;;;;0.37;0.37;;;;;;;12.79;100.00;92967.41;5033424;28;20726;-72
2023/11/05 08:02:50;;;;;;;5.63;0.60;;;;;;;12.83;100.00;92979.81;5034089;28;20205;-71
2023/11/05 08:05:17;;;;;;;0.30;0.30;;;;;;;12.94;100.00;92972.69;5035269;28;20222;-72
2023/11/05 08:07:45;;;;;;;0.70;0.70;;;;;;;13.13;100.00;92987.66;5037308;28;20202;-71
2023/11/05 08:10:13;;;;;;;0.77;0.60;;;;;;;13.11;100.00;92987.16;5037570;28;20221;-70
2023/11/05 08:12:40;;;;;;;0.60;0.60;;;;;;;12.93;100.00;92990.41;5038021;28;20213;-72
2023/11/05 08:15:09;;;;;;;0.50;0.50;;;;;;;12.92;100.00;92982.75;5039165;28;20212;-72
2023/11/05 08:17:35;;;;;;;0.80;0.53;;;;;;;12.67;100.00;92980.13;5037674;28;20209;-69
2023/11/05 08:20:02;;;;;;;0.40;0.40;;;;;;;12.68;100.00;92992.28;5038456;28;20197;-70
2023/11/05 08:22:29;;;;;;;0.50;0.50;;;;;;;12.73;100.00;92999.38;5038028;28;20212;-71
2023/11/05 08:24:57;;;;;;;0.30;0.30;;;;;;;12.78;100.00;92997.56;5038231;28;20201;-71
2023/11/05 08:27:24;;;;;;;0.50;0.50;;;;;;;12.53;100.00;93008.16;5038058;28;20974;-71
2023/11/05 08:29:50;;;;;;;0.40;0.40;;;;;;;12.53;100.00;93004.72;5038167;28;20365;-70
2023/11/05 08:32:20;;;;;;;0.40;0.40;;;;;;;12.50;100.00;92990.19;5037097;28;20220;-70
2023/11/05 08:34:47;;;;;;;0.30;0.30;;;;;;;12.55;100.00;93006.03;5039159;28;20209;-71
2023/11/05 08:37:13;;;;;;;0.30;0.30;;;;;;;12.53;100.00;92994.94;5038363;28;20312;-71
2023/11/05 08:39:40;;;;;;;0.23;0.23;;;;;;;12.53;100.00;93016.06;5037684;28;20209;-71
2023/11/05 08:42:08;;;;;;;6.43;0.50;;;;;;;12.46;100.00;93028.75;5037499;28;20300;-70
2023/11/05 08:44:35;;;;;;;0.40;0.40;;;;;;;12.62;100.00;93035.59;5037935;28;20412;-71
2023/11/05 08:47:01;;;;;;;0.60;0.60;;;;;;;12.46;100.00;93039.31;5037282;28;20217;-71
2023/11/05 08:49:28;;;;;;;0.97;0.30;;;;;;;12.59;100.00;93062.56;5036368;28;20313;-71
2023/11/05 08:51:57;;;;;;;0.30;0.30;;;;;;;12.80;100.00;93054.34;5037255;28;20201;-71
2023/11/05 08:54:24;;;;;;;0.20;0.20;;;;;;;12.49;100.00;93062.56;5036453;28;20757;-70
2023/11/05 08:56:50;;;;;;;0.20;0.20;;;;;;;12.50;100.00;93064.13;5036680;28;20721;-69
2023/11/05 08:59:18;;;;;;;0.30;0.30;;;;;;;12.45;100.00;93076.56;5036601;28;20201;-72
2023/11/05 09:01:45;;;;;;;0.40;0.40;;;;;;;12.43;100.00;93071.50;5037457;28;20202;-71
2023/11/05 09:04:13;;;;;;;0.30;0.30;;;;;;;12.52;100.00;93082.34;5036511;28;20818;-69
2023/11/05 09:06:40;;;;;;;0.47;0.47;;;;;;;12.30;100.00;93074.69;5036531;28;20607;-70
2023/11/05 09:09:07;;;;;;;0.70;0.53;;;;;;;12.32;100.00;93098.97;5036786;28;20223;-70
2023/11/05 09:11:34;;;;;;;0.20;0.20;;;;;;;12.40;100.00;93092.41;5037569;28;20321;-71
2023/11/05 09:14:00;;;;;;;0.47;0.40;;;;;;;12.18;100.00;93097.91;5036929;28;20747;-71
2023/11/05 09:16:28;;;;;;;0.30;0.30;;;;;;;12.45;100.00;93103.75;5037530;28;20248;-69
2023/11/05 09:18:55;;;;;;;0.30;0.30;;;;;;;12.53;100.00;93120.91;5036185;28;20251;-71
2023/11/05 09:21:22;;;;;;;0.40;0.40;;;;;;;12.22;100.00;93125.38;5037377;28;20224;-69
2023/11/05 09:23:49;;;;;;;0.40;0.30;;;;;;;12.26;100.00;93139.63;5037271;28;20201;-70
2023/11/05 09:26:15;;;;;;;0.63;0.53;;;;;;;12.22;100.00;93151.75;5037374;28;20221;-71
2023/11/05 09:28:42;;;;;;;1.90;0.40;;;;;;;12.35;100.00;93147.84;5036749;28;21133;-70
2023/11/05 09:31:10;;;;;;;0.30;0.30;;;;;;;12.12;100.00;93152.78;5037295;28;20211;-70
2023/11/05 09:33:38;;;;;;;0.20;0.20;;;;;;;12.38;100.00;93171.84;5036287;28;20244;-69
2023/11/05 09:36:06;;;;;;;0.77;0.50;;;;;;;12.14;100.00;93185.00;5036636;28;20231;-69
2023/11/05 09:38:33;;;;;;;0.73;0.50;;;;;;;12.21;100.00;93195.03;5036389;28;20197;-70
2023/11/05 09:41:00;;;;;;;0.40;0.40;;;;;;;12.35;100.00;93193.50;5036178;28;20212;-70
2023/11/05 09:43:27;;;;;;;0.30;0.30;;;;;;;12.22;100.00;93198.50;5035524;28;20682;-70
2023/11/05 09:45:53;;;;;;;0.30;0.30;;;;;;;12.31;100.00;93204.84;5035422;28;20316;-70
2023/11/05 09:48:22;;;;;;;0.30;0.30;;;;;;;12.27;100.00;93209.03;5036827;28;20212;-69
2023/11/05 09:50:50;;;;;;;0.30;0.30;;;;;;;12.33;100.00;93223.84;5035735;28;20286;-71
2023/11/05 09:53:17;;;;;;;0.40;0.40;;;;;;;12.26;100.00;93226.72;5036978;28;20212;-71
2023/11/05 09:55:46;;;;;;;0.37;0.37;;;;;;;12.54;100.00;93210.44;5035677;28;20598;-71
2023/11/05 09:58:14;;;;;;;0.33;0.33;;;;;;;13.01;100.00;93256.00;5036730;28;20197;-71
2023/11/05 10:00:41;;;;;;;1.23;0.40;;;;;;;12.96;100.00;93234.84;5034886;28;20698;-70
2023/11/05 10:03:09;;;;;;;0.40;0.40;;;;;;;13.21;100.00;93226.91;5036316;28;20205;-69
2023/11/05 10:05:38;;;;;;;2.93;0.30;;;;;;;13.30;100.00;93243.81;5035658;28;20228;-71
2023/11/05 10:08:06;;;;;;;0.33;0.33;;;;;;;13.40;100.00;93266.56;5035768;28;20197;-70
2023/11/05 10:10:33;;;;;;;0.20;0.20;;;;;;;13.46;100.00;93275.28;5034847;28;20224;-71
2023/11/05 10:13:00;;;;;;;0.30;0.30;;;;;;;13.30;100.00;93272.91;5035855;28;20201;-69
2023/11/05 10:15:27;;;;;;;0.30;0.30;;;;;;;13.13;100.00;93296.16;5036592;28;20252;-71
2023/11/05 10:17:55;;;;;;;0.20;0.20;;;;;;;13.06;100.00;93295.63;5035892;28;20205;-71
2023/11/05 10:20:22;;;;;;;0.30;0.30;;;;;;;12.74;100.00;93324.09;5035736;28;20204;-70
2023/11/05 10:23:00;;;;;;;0.30;0.30;;;;;;;13.20;100.00;93307.25;5035091;28;20592;-71
2023/11/05 10:25:29;;;;;;;0.30;0.30;;;;;;;13.29;100.00;93316.25;5036884;28;20228;-70
2023/11/05 10:27:57;;;;;;;0.30;0.30;;;;;;;13.10;100.00;93312.56;5036486;28;20597;-70
2023/11/05 10:30:25;;;;;;;0.50;0.50;;;;;;;12.80;100.00;93325.66;5035808;28;20228;-70
2023/11/05 10:32:53;;;;;;;0.70;0.60;;;;;;;12.82;100.00;93302.44;5035781;28;20193;-71
2023/11/05 10:35:21;;;;;;;0.20;0.20;;;;;;;12.89;100.00;93310.91;5035880;28;20714;-69
2023/11/05 10:37:49;;;;;;;0.50;0.30;;;;;;;13.01;100.00;93320.19;5035091;28;20197;-70
2023/11/05 10:40:17;;;;;;;0.70;0.30;;;;;;;13.15;100.00;93309.91;5036601;28;20244;-69
2023/11/05 10:42:46;;;;;;;0.30;0.30;;;;;;;13.23;100.00;93327.91;5034456;28;20205;-70
2023/11/05 10:45:14;;;;;;;0.30;0.30;;;;;;;13.04;100.00;93356.69;5036007;28;20212;-70
2023/11/05 10:47:41;;;;;;;0.20;0.20;;;;;;;12.94;100.00;93337.34;5034882;28;20245;-70
2023/11/05 10:50:11;;;;;;;0.63;0.23;;;;;;;13.06;100.00;93343.19;5035238;28;20225;-70
2023/11/05 10:52:41;;;;;;;2.37;0.40;;;;;;;13.16;100.00;93332.63;5035371;28;20314;-71
2023/11/05 10:55:09;;;;;;;0.20;0.20;;;;;;;13.03;100.00;93338.44;5036228;28;20197;-71
2023/11/05 10:57:43;;;;;;;0.23;0.20;;;;;;;13.24;100.00;93335.56;5034772;28;20270;-70
2023/11/05 11:00:39;;;;;;;0.40;0.40;;;;;;;13.16;100.00;93338.75;5035225;28;20231;-69
2023/11/05 11:03:12;;;;;;;0.53;0.30;;;;;;;13.14;100.00;93340.06;5031682;28;20197;-69
2023/11/05 11:05:59;;;;;;;0.87;0.33;;;;;;;13.40;100.00;93345.91;5034894;28;20231;-70
2023/11/05 11:08:28;;;;;;;0.30;0.30;;;;;;;13.36;100.00;93351.19;5030383;28;20205;-71
2023/11/05 11:11:14;;;;;;;0.30;0.30;;;;;;;13.46;100.00;93367.84;5034391;28;20313;-69
2023/11/05 11:13:49;;;;;;;0.30;0.30;;;;;;;13.63;100.00;93360.47;5034334;28;20210;-70
2023/11/05 11:16:26;;;;;;;0.83;0.47;;;;;;;13.50;100.00;93372.38;5036476;28;20331;-69
2023/11/05 11:18:55;;;;;;;0.33;0.33;;;;;;;13.53;100.00;93374.47;5035687;28;20201;-71
2023/11/05 11:21:23;;;;;;;0.30;0.30;;;;;;;13.40;100.00;93377.66;5035908;28;20283;-70
2023/11/05 11:23:50;;;;;;;0.30;0.30;;;;;;;13.36;100.00;93385.56;5035206;28;20709;-72
2023/11/05 11:26:26;;;;;;;0.30;0.30;;;;;;;13.55;100.00;93382.94;5035735;28;20282;-71